Search :
Type the text to search here and press Enter.
Separate search terms by a space; they will all be searched individually in all fields of the database.

Click on Search : to go to the advanced search page.
Mkt: Check this box if you want
to search in classified
instead of the database.

N Scale Model Trains Database

Engines, Rolling Stock, Structures, and Accessories

JavaScript is disabled in your browser. This page will not work properly.

Body Style:
Brand:
Production Type:
Manufacturer:
Road or Company Name:
Series Name:
Item Category:
Model Type:
Total items in database: 83592. Total items on page 210.

Market Information: C = Classified Ad, H = Historical Data Available, E = Available for purchase Online, I: Collector Valuation Available.

Inventory Check: for user: 0

First Image Brand Stock Number Road or Company Name Reporting Marks Road or Reporting Number Prototype Original Retail Price Market Release Date ID
Athearn 11949 Reading RDG 5 Different Numbers Open Hopper, 3-Bay Steel 2008-12-01 113152
Athearn 11950 Reading RDG 5 Different Numbers Open Hopper, 3-Bay Steel 2008-12-01 113153
Atlas 3008 New Jersey Transit 1997 Ford F-150 Super Cab Truck, Ford F-Series H:$72.25 2008-12-01 98058
Atlas 3009 Providence & Worcester 1997 Ford F-150 Super Cab Truck, Ford F-Series $16.95 H:$49.19 2008-12-01 98059
Atlas 39800 Undecorated Caboose, Cupola, Steel, C&O H:$12.22 2008-12-01 135216
Atlas 39801A Chesapeake & Ohio 90203 Caboose, Cupola, Steel, C&O $21.95 2008-12-01 109343
Atlas 39802A Chesapeake & Ohio 90238 Caboose, Cupola, Steel, C&O $21.95 2008-12-01 108980
Atlas 39803A Chessie System C&O 90241 Caboose, Cupola, Steel, C&O $21.95 2008-12-01 108981
Atlas 39804A Chessie System C&O 90256 Caboose, Cupola, Steel, C&O $21.95 2008-12-01 108982
Atlas 39805A Conrail 19065 Caboose, Cupola, Steel, C&O $21.95 2008-12-01 109011
Atlas 39806A Conrail 19334 Caboose, Cupola, Steel, C&O $21.95 2008-12-01 109012
Atlas 39807A Missouri Pacific 12013 Caboose, Cupola, Steel, C&O $21.95 I:$15.98 2008-12-01 109013
Atlas 39808A Missouri Pacific 12020 Caboose, Cupola, Steel, C&O $21.95 I:$21.95 2008-12-01 109014
Atlas 39809A Union Pacific UP 25214 Caboose, Cupola, Steel, C&O $21.95 2008-12-01 109015
Atlas 39810A Union Pacific UP 25304 Caboose, Cupola, Steel, C&O $21.95 2008-12-01 109016
Atlas 39811A Virginian 300 Caboose, Cupola, Steel, C&O $21.95 2008-12-01 109017
Atlas 39812A Virginian 307 Caboose, Cupola, Steel, C&O $21.95 2008-12-01 109018
Atlas 39813 Chesapeake & Ohio C&O 90203 Caboose, Cupola, Steel, C&O $21.95 H:$10.26 2008-12-01 109019
Atlas 39814 Chesapeake & Ohio C&O 90238 Caboose, Cupola, Steel, C&O $21.95 H:$9.95 2008-12-01 109020
Atlas 39815 Chicago & Eastern Illinois C&EI 3 Caboose, Cupola, Steel, C&O $21.95 H:$15.50 I:$15.50 2008-12-01 109022
Atlas 39816 Chicago & Eastern Illinois C&EI 6 Caboose, Cupola, Steel, C&O $21.95 2008-12-01 109023
Atlas 39817 Chicago & North Western CNW 10802 Caboose, Cupola, Steel, C&O $21.95 2008-12-01 109262
Atlas 39818 Chicago & North Western CNW 10804 Caboose, Cupola, Steel, C&O $21.95 H:$12.50 2008-12-01 109263
Atlas 39819 Delaware & Hudson 35703 Caboose, Cupola, Steel, C&O $21.95 2008-12-01 109264
Atlas 39820 Delaware & Hudson 35704 Caboose, Cupola, Steel, C&O $21.95 H:$5.50 2008-12-01 109265
Atlas 39821 Jersey Central 91539 Caboose, Cupola, Steel, C&O $21.95 E:$15.00 H:$19.80 2008-12-01 109266
Atlas 39822 Jersey Central 91545 Caboose, Cupola, Steel, C&O $21.95 H:$17.53 2008-12-01 109267
Atlas 39823 Pere Marquette 909 Caboose, Cupola, Steel, C&O $21.95 2008-12-01 109268
Atlas 39824 Pere Marquette 920 Caboose, Cupola, Steel, C&O $21.95 2008-12-01 109269
Atlas 39825 Reading 92850 Caboose, Cupola, Steel, C&O $21.95 2008-12-01 109270
Atlas 39826 Reading 92886 Caboose, Cupola, Steel, C&O $21.95 H:$10.50 2008-12-01 109271
Atlas 39827 Southern Pacific SP 92886 Caboose, Cupola, Steel, C&O $21.95 2008-12-01 109272
Atlas 39828 Southern Pacific SP 324 Caboose, Cupola, Steel, C&O $21.95 H:$5.99 2008-12-01 109273
Atlas 39829 Western Maryland WM 1814 Caboose, Cupola, Steel, C&O $21.95 I:$15.00 2008-12-01 109274
Atlas 39830 Western Maryland WM 1818 Caboose, Cupola, Steel, C&O $21.95 2008-12-01 109275
Atlas 39831 Canadian National CN 79207 Caboose, Cupola, Steel, C&O $21.95 I:$10.89 2008-12-01 135217
Atlas 39832 Canadian National CN 79240 Caboose, Cupola, Steel, C&O $21.95 H:$9.47 2008-12-01 109276
Atlas 39833 Chesapeake & Ohio C&O 3539 Caboose, Cupola, Steel, C&O $21.95 H:$13.63 2008-12-01 109277
Atlas 39834 Chesapeake & Ohio C&O 3559 Caboose, Cupola, Steel, C&O $21.95 H:$15.75 2008-12-01 109278
Atlas 39835 Erie ERIE 226 Caboose, Cupola, Steel, C&O $21.95 H:$29.99 2008-12-01 109279
Atlas 39836 Erie ERIE 246 Caboose, Cupola, Steel, C&O $21.95 H:$15.00 2008-12-01 109280
Atlas 39837 Frisco SLSF 162 Caboose, Cupola, Steel, C&O $21.95 H:$58.35 2008-12-01 109281
Atlas 39838 Frisco SLSF 163 Caboose, Cupola, Steel, C&O $21.95 H:$15.50 2008-12-01 109282
Atlas 39839 Lackawanna 896 Caboose, Cupola, Steel, C&O $21.95 2008-12-01 109283
Atlas 39840 Lackawanna 910 Caboose, Cupola, Steel, C&O $21.95 2008-12-01 109284
Atlas 39841 Lehigh & Hudson River L&HR 11 Caboose, Cupola, Steel, C&O $21.95 H:$15.02 2008-12-01 109285
Atlas 39842 Lehigh & Hudson River L&HR 17 Caboose, Cupola, Steel, C&O $21.95 H:$15.29 2008-12-01 109286
Atlas 39843 Lehigh Valley LV 95003 Caboose, Cupola, Steel, C&O $21.95 H:$5.83 2008-12-01 109287
Atlas 39844 Lehigh Valley LV 95015 Caboose, Cupola, Steel, C&O $21.95 H:$19.30 2008-12-01 109288
Atlas 39845 Louisville & Nashville L&N 906 Caboose, Cupola, Steel, C&O $21.95 H:$26.00 2008-12-01 109289
Atlas 39846 Louisville & Nashville L&N 912 Caboose, Cupola, Steel, C&O $21.95 H:$29.50 2008-12-01 109290
Atlas 39847 New Jersey Transit 901 Caboose, Cupola, Steel, C&O $21.95 H:$25.00 2008-12-01 109291
Atlas 39848 New Jersey Transit 902 Caboose, Cupola, Steel, C&O $21.95 2008-12-01 109292
Atlas 39849 Chesapeake & Ohio C&O 90262 Caboose, Cupola, Steel, C&O $21.95 H:$7.75 2008-12-01 109293
Atlas 39850 Chesapeake & Ohio C&O 90288 Caboose, Cupola, Steel, C&O $21.95 H:$9.99 2008-12-01 109294
Atlas 39851 Conrail CR 19077 Caboose, Cupola, Steel, C&O $21.95 2008-12-01 109295
Atlas 39852 Conrail CR 19159 Caboose, Cupola, Steel, C&O $21.95 2008-12-01 109296
Atlas 39853 Southern Pacific SP 1163 Caboose, Cupola, Steel, C&O $21.95 H:$12.99 2008-12-01 109297
Atlas 39854 Southern Pacific SP 1200 Caboose, Cupola, Steel, C&O $21.95 H:$16.16 2008-12-01 109298
Atlas 39855 Union Pacific UP 25222 Caboose, Cupola, Steel, C&O $21.95 2008-12-01 109299
Atlas 39856 Union Pacific UP 25265 Caboose, Cupola, Steel, C&O $21.95 H:$16.00 2008-12-01 109300
Atlas 41526 Northern Refrigerator NRCC 7058 Reefer, Ice, Wood $23.95 H:$20.10 2008-12-01 90583
Atlas 41527 Northern Refrigerator NRCC 7059 Reefer, Ice, Wood $23.95 H:$17.87 I:$17.87 2008-12-01 90584
Atlas 41528 Borden's Farm Products NRC 3837 Reefer, Ice, Wood $23.95 H:$20.50 2008-12-01 90585
Atlas 41529 Borden's Farm Products NRC 3838 Reefer, Ice, Wood $23.95 H:$15.50 2008-12-01 90586
Atlas 41530 College Inn CIPX 104 Reefer, Ice, Wood $23.95 H:$14.99 2008-12-01 90587
Atlas 41531 College Inn CIPX 105 Reefer, Ice, Wood $23.95 H:$11.98 2008-12-01 90588
Atlas 41532 Fairmont Creamery FDLX 30155 Reefer, Ice, Wood $23.95 H:$14.15 2008-12-01 90589
Atlas 41533 Fairmont Creamery FDLX 30158 Reefer, Ice, Wood $23.95 H:$17.76 2008-12-01 90590
Atlas 41534 Lion Milk NWX 15431 Reefer, Ice, Wood $23.95 H:$15.71 2008-12-01 90591
Atlas 41535 Lion Milk NWX 15435 Reefer, Ice, Wood $23.95 H:$18.27 2008-12-01 90592
Atlas 41536 White House Milk GARE 1107 Reefer, Ice, Wood $23.95 E:$17.99 H:$19.00 I:$17.99 2008-12-01 90593
Atlas 41537 White House Milk GARE 1108 Reefer, Ice, Wood $23.95 E:$17.95 H:$12.52 2008-12-01 90594
Atlas 41538 Williamson Candy NWX 5500 Reefer, Ice, Wood $23.95 H:$24.00 I:$24.00 2008-12-01 90595
Atlas 41539 Williamson Candy NWX 5501 Reefer, Ice, Wood $23.95 E:$23.50 H:$15.75 2008-12-01 90596
Atlas 41540 Wilson's Milk URTX 17500 Reefer, Ice, Wood $23.95 E:$18.99 H:$13.00 2008-12-01 90597
Atlas 41541 Wilson's Milk URTX 17501 Reefer, Ice, Wood $23.95 H:$13.61 2008-12-01 90598
Atlas 48287 Chicago & Eastern Illinois 204 Locomotive, Diesel, EMD GP7 $99.95 2008-12-01 130957
Atlas 48288 Chicago & Eastern Illinois 206 Locomotive, Diesel, EMD GP7 $99.95 2008-12-01 130959
Atlas 48289 Clinchfield 902 Locomotive, Diesel, EMD GP7 $99.95 2008-12-01 130961
Atlas 48290 Clinchfield 907 Locomotive, Diesel, EMD GP7 $99.95 2008-12-01 130963
Atlas 48291 Great Northern 602 Locomotive, Diesel, EMD GP7 $99.95 H:$45.99 2008-12-01 130965
Atlas 48292 Great Northern 618 Locomotive, Diesel, EMD GP7 $99.95 2008-12-01 130967
Atlas 48293 Great Northern 636 Locomotive, Diesel, EMD GP7 $99.95 2008-12-01 130969
Atlas 48294 New York Central P&LE 5676 Locomotive, Diesel, EMD GP7 $99.95 H:$55.98 2008-12-01 130970
Atlas 48295 New York Central P&LE 5680 Locomotive, Diesel, EMD GP7 $99.95 H:$60.15 2008-12-01 130972
Atlas 48296 Penn Central PC 5628 Locomotive, Diesel, EMD GP7 $99.95 H:$50.00 2008-12-01 130974
Atlas 48297 Penn Central PC 5633 Locomotive, Diesel, EMD GP7 $99.95 2008-12-01 130976
Atlas 48298 Rock Island R 4434 Locomotive, Diesel, EMD GP7 $99.95 H:$59.07 2008-12-01 130978
Atlas 48299 Rock Island R 4446 Locomotive, Diesel, EMD GP7 $99.95 2008-12-01 130980
Atlas 48370 Florida East Coast FEC 657 Locomotive, Diesel, EMD GP9 $99.95 2008-12-01 130983
Atlas 48371 Florida East Coast FEC 661 Locomotive, Diesel, EMD GP9 $99.95 2008-12-01 130985
Atlas 48372 Montana Rail Link 102 Locomotive, Diesel, EMD GP9 $99.95 H:$96.86 2008-12-01 130987
Atlas 48373 Montana Rail Link 126 Locomotive, Diesel, EMD GP9 $99.95 2008-12-01 130989
Atlas 48374 Rio Grande 5903 Locomotive, Diesel, EMD GP9 $99.95 H:$70.27 2008-12-01 130991
Atlas 48375 Rio Grande 5904 Locomotive, Diesel, EMD GP9 $99.95 H:$65.05 I:$100.00 2008-12-01 130993
Atlas 48376 Southern Pacific SP 5929 Locomotive, Diesel, EMD GP9 $99.95 2008-12-01 130995
Atlas 48377 Southern Pacific SP 5934 Locomotive, Diesel, EMD GP9 $99.95 2008-12-01 130997
Atlas 48378 Southern Pacific SP 5969 Locomotive, Diesel, EMD GP9 $99.95 2008-12-01 130999
Atlas 48379 Union Pacific UP 170 Locomotive, Diesel, EMD GP9 $99.95 H:$56.54 2008-12-01 131000
Atlas 48380 Union Pacific UP 189 Locomotive, Diesel, EMD GP9 $99.95 H:$54.61 2008-12-01 131002
Atlas 48381 Union Pacific UP 216 Locomotive, Diesel, EMD GP9 $99.95 H:$56.00 2008-12-01 131004
Atlas 50832 Chicago & Eastern Illinois 204 Locomotive, Diesel, EMD GP7 $134.95 2008-12-01 130958
Atlas 50833 Chicago & Eastern Illinois 206 Locomotive, Diesel, EMD GP7 $134.95 E:$139.95 2008-12-01 130960
Atlas 50834 Clinchfield 902 Locomotive, Diesel, EMD GP7 $134.95 2008-12-01 130962
Atlas 50835 Clinchfield 907 Locomotive, Diesel, EMD GP7 $134.95 E:$139.95 2008-12-01 130964
Atlas 50836 Great Northern 602 Locomotive, Diesel, EMD GP7 $134.95 2008-12-01 130966
Atlas 50837 Great Northern 618 Locomotive, Diesel, EMD GP7 $134.95 2008-12-01 130968
Atlas 50838 New York Central P&LE 5676 Locomotive, Diesel, EMD GP7 $134.95 2008-12-01 130971
Atlas 50839 New York Central P&LE 5680 Locomotive, Diesel, EMD GP7 $134.95 2008-12-01 130973
Atlas 50840 Penn Central PC 5628 Locomotive, Diesel, EMD GP7 $134.95 2008-12-01 130975
Atlas 50841 Penn Central PC 5633 Locomotive, Diesel, EMD GP7 $134.95 H:$90.00 2008-12-01 130977
Atlas 50842 Rock Island R 4434 Locomotive, Diesel, EMD GP7 $134.95 H:$104.44 2008-12-01 130979
Atlas 50843 Rock Island R 4446 Locomotive, Diesel, EMD GP7 $134.95 2008-12-01 130981
Atlas 50874 Florida East Coast FEC 657 Locomotive, Diesel, EMD GP9 $134.95 2008-12-01 130984
Atlas 50875 Florida East Coast FEC 661 Locomotive, Diesel, EMD GP9 $134.95 2008-12-01 130986
Atlas 50876 Montana Rail Link 102 Locomotive, Diesel, EMD GP9 $134.95 2008-12-01 130988
Atlas 50877 Montana Rail Link 126 Locomotive, Diesel, EMD GP9 $134.95 2008-12-01 130990
Atlas 50878 Rio Grande 5903 Locomotive, Diesel, EMD GP9 $134.95 H:$51.00 2008-12-01 130992
Atlas 50879 Rio Grande 5904 Locomotive, Diesel, EMD GP9 $134.95 2008-12-01 130994
Atlas 50880 Southern Pacific SP 5929 Locomotive, Diesel, EMD GP9 $134.95 2008-12-01 130996
Atlas 50881 Southern Pacific SP 5934 Locomotive, Diesel, EMD GP9 $134.95 2008-12-01 130998
Atlas 50882 Union Pacific UP 170 Locomotive, Diesel, EMD GP9 $134.95 2008-12-01 131001
Atlas 50883 Union Pacific UP 189 Locomotive, Diesel, EMD GP9 $134.95 2008-12-01 131003
Deluxe Innovations 13131 Sea Star STRU 2-Pack Container, 53 Foot, Corrugated 2008-12-01 151067
Deluxe Innovations 713111 Kane Trailer, Box Van, 53 Foot $14.95 2008-12-01 149949
Deluxe Innovations 713112 Kane Trailer, Box Van, 53 Foot $14.95 2008-12-01 149950
Deluxe Innovations 713211 Cannon Express Trailer, Box Van, 53 Foot $15.95 2008-12-01 149952
Deluxe Innovations 713212 Cannon Express Trailer, Box Van, 53 Foot $15.95 2008-12-01 149953
Kato 10-574 Japan Railways East Yokosuka & Sobu Lines 4-Pack Passenger Train, Electric, Series E217 12,100¥ 2008-12-01 186802
Kato 10-575 Japan Railways East Yokosuka & Sobu Lines 4 Car Add-On Set Passenger Train, Electric, Series E217 8,910¥ 2008-12-01 186824
Kato 10-576 Japan Railways East Yokosuka & Sobu Lines 3 Car Add-On Set Passenger Train, Electric, Series E217 4,620¥ 2008-12-01 186825
Micro-Trains 038 44 161 Burlington Northern BN 745452 Boxcar, 50 Foot, Steel, Plug Door E:$25.00 H:$23.75 C:$25.00 2008-12-01 21826
Micro-Trains 038 44 162 Burlington Northern BN 745455 Boxcar, 50 Foot, Steel, Plug Door E:$30.00 H:$11.47 C:$30.00 2008-12-01 21827
Micro-Trains 045 00 350 Atlantic Coast Line ACL 77409 Flatcar, 50 Foot H:$19.04 I:$20.84 2008-12-01 22041
Micro-Trains 046 00 270 Wabash WAB 11615 Gondola, 50 Foot, Steel H:$22.47 I:$22.00 2008-12-01 22151
Micro-Trains 047 00 290 Pacific Fruit Express WP/PFE 52220 Reefer, Ice, Wood H:$20.37 I:$22.80 2008-12-01 22243
Micro-Trains 047 51 060 Pacific Fruit Express PFE 19536 Reefer, Ice, Wood 2008-12-01 22266
Micro-Trains 047 52 060 Pacific Fruit Express PFE 19720 Reefer, Ice, Wood 2008-12-01 22267
Micro-Trains 047 53 060 Pacific Fruit Express PFE 19866 Reefer, Ice, Wood 2008-12-01 22268
Micro-Trains 047 54 060 Pacific Fruit Express PFE 19915 Reefer, Ice, Wood 2008-12-01 22269
Micro-Trains 059 00 506 American Refrigerator Transit ART 27092 Reefer, 40 Foot, R-40-10 E:$20.00 H:$17.07 I:20.00 C:20.00 2008-12-01 22960
Micro-Trains 065 00 560 Canadian National CN 990986 Tank Car, Single Dome, 39 Foot H:$17.83 I:$16.55 2008-12-01 23194
Micro-Trains 074 00 104 Presidential Cars James Madison: 1809-1817 Boxcar, 50 Foot, PS-1 $23.95 E:$20.00 H:$10.36 I:$12.66 C:$20.00 2008-12-01 23490
Micro-Trains 092 00 231 Northern Pacific NP 75023 Covered Hopper, 2-Bay, ACF Centerflow H:$16.83 I:$15.00 2008-12-01 23779
Micro-Trains 092 00 232 Northern Pacific NP 75052 Covered Hopper, 2-Bay, ACF Centerflow H:$15.38 I:$15.00 2008-12-01 23780
Micro-Trains 105 51 170 Southern 60065 Gondola, 50 Foot, Steel 2008-12-01 24074
Micro-Trains 105 52 170 Southern 60100 Gondola, 50 Foot, Steel 2008-12-01 24077
Micro-Trains 105 53 170 Southern 60143 Gondola, 50 Foot, Steel 2008-12-01 24080
Micro-Trains 105 54 170 Southern 60182 Gondola, 50 Foot, Steel 2008-12-01 24083
Micro-Trains 110 00 120 Santa Fe ATSF 98615 Tank Car, Single Dome, 56 Foot $29.65 E:$25.00 H:$21.13 I:$22.53 C:$25.00 2008-12-01 24227
Micro-Trains 499 43 943 Undecorated 40' - Square Timber Load 4-Pack Load,Timber, Lumber $15.95 2008-12-01 187882
Micro-Trains 993 00 021 Pacific Fruit Express PFE multi Boxed Set, Runner Pack $79.95 H:$65.07 2008-12-01 89603
Micro-Trains 993 00 022 Southern 60065, 60100, 60143, 60182 Boxed Set, Runner Pack $49.95 H:$49.95 I:$50.00 2008-12-01 89604
Micro-Trains NSC 08-69 Northwest Fruit Growers AFPX 11308 Reefer, 40 Foot, R-40-10 $49.50 2008-12-01 153658
Micro-Trains NSC 08-70 Northwest Fruit Growers AFPX 21308 Reefer, 40 Foot, R-40-10 $49.50 2008-12-01 153659
Oxford Diecast NOB002 Southdown Motor Services JCD 370 Bus, Bedford, OB/OWB £6.75 2008-12-01 172459
Piko 94100 SNCF SNCF 040 DG 58 Locomotive, Diesel, SNCF BB 66000 109.00€ 2008-12-01 124223
Piko 94100D SNCF SNCF 040 DG 58 Locomotive, Diesel, SNCF BB 66000 149.00€ 2008-12-01 124224
Piko 94101 SNCF SNCF 66097 Locomotive, Diesel, SNCF BB 66000 109.00€ 2008-12-01 124220
Piko 94102 SNCF SNCF 66085 Locomotive, Diesel, SNCF BB 66000 109.00€ 2008-12-01 124253
Piko 94103 SNCF SNCF 66117 Locomotive, Diesel, SNCF BB 66000 109.00€ 2008-12-01 124254
Trainworx 2407-01 Union Pacific UP 48530 Open Hopper, 4-Bay Steel 2008-12-01 184464
Trainworx 2407-02 Union Pacific UP 48543 Open Hopper, 4-Bay Steel E:$16.00 2008-12-01 184465
Trainworx 2407-03 Union Pacific UP 48561 Open Hopper, 4-Bay Steel E:$16.00 2008-12-01 184466
Trainworx 2407-04 Union Pacific UP 48588 Open Hopper, 4-Bay Steel 2008-12-01 184467
Trainworx 2407-05 Union Pacific UP 48619 Open Hopper, 4-Bay Steel E:$16.00 2008-12-01 184468
Trainworx 2407-06 Union Pacific UP 48633 Open Hopper, 4-Bay Steel 2008-12-01 184469
Trainworx 2407-07 Union Pacific UP 48635 Open Hopper, 4-Bay Steel E:$16.00 2008-12-01 184470
Trainworx 2407-08 Union Pacific UP 48638 Open Hopper, 4-Bay Steel E:$16.00 2008-12-01 184471
Trainworx 2407-09 Union Pacific UP 48655 Open Hopper, 4-Bay Steel E:$16.00 2008-12-01 184472
Trainworx 2407-10 Union Pacific UP 48664 Open Hopper, 4-Bay Steel E:$16.00 2008-12-01 184473
Trainworx 2407-11 Union Pacific UP 48673 Open Hopper, 4-Bay Steel E:$16.00 2008-12-01 184474
Trainworx 2407-12 Union Pacific UP 48687 Open Hopper, 4-Bay Steel E:$16.00 2008-12-01 184475
Trainworx 2407-13 Union Pacific UP 48692 Open Hopper, 4-Bay Steel 2008-12-01 184476
Trainworx 2407-14 Union Pacific UP 48706 Open Hopper, 4-Bay Steel 2008-12-01 184477
Trainworx 2407-15 Union Pacific UP 48719 Open Hopper, 4-Bay Steel 2008-12-01 184478
Trainworx 2407-16 Union Pacific UP 48731 Open Hopper, 4-Bay Steel E:$16.00 2008-12-01 184479
Trainworx 2407-17 Union Pacific UP 48732 Open Hopper, 4-Bay Steel E:$16.00 2008-12-01 184480
Trainworx 2407-18 Union Pacific UP 48737 Open Hopper, 4-Bay Steel E:$16.00 2008-12-01 184481
Trainworx 2407-19 Union Pacific UP 48738 Open Hopper, 4-Bay Steel E:$16.00 2008-12-01 184482
Trainworx 2407-20 Union Pacific UP 48740 Open Hopper, 4-Bay Steel E:$16.00 2008-12-01 184483
Trainworx 2407-21 Union Pacific UP 48756 Open Hopper, 4-Bay Steel E:$16.00 2008-12-01 184484
Trainworx 2407-22 Union Pacific UP 48764 Open Hopper, 4-Bay Steel E:$16.00 2008-12-01 184485
Trainworx 2407-23 Union Pacific UP 48772 Open Hopper, 4-Bay Steel E:$16.00 2008-12-01 184486
Trainworx 2407-24 Union Pacific UP 48776 Open Hopper, 4-Bay Steel E:$16.00 2008-12-01 184487
Trainworx 2418-13 Alaska Railroad ARR 16203 Open Hopper, 4-Bay Steel H:$19.99 2008-12-01 115976
Trainworx 2418-14 Alaska Railroad ARR 16205 Open Hopper, 4-Bay Steel 2008-12-01 115977
Trainworx 2418-15 Alaska Railroad ARR 16209 Open Hopper, 4-Bay Steel H:$19.99 2008-12-01 115978
Trainworx 2418-16 Alaska Railroad ARR 16210 Open Hopper, 4-Bay Steel H:$19.99 2008-12-01 115979
Trainworx 2418-17 Alaska Railroad ARR 16211 Open Hopper, 4-Bay Steel 2008-12-01 115980
Trainworx 2418-18 Alaska Railroad ARR 16214 Open Hopper, 4-Bay Steel 2008-12-01 115981
Trainworx 2418-19 Alaska Railroad ARR 16217 Open Hopper, 4-Bay Steel 2008-12-01 115982
Trainworx 2418-20 Alaska Railroad ARR 16219 Open Hopper, 4-Bay Steel 2008-12-01 115983
Trainworx 2418-21 Alaska Railroad ARR 16220 Open Hopper, 4-Bay Steel 2008-12-01 115984
Trainworx 2418-22 Alaska Railroad ARR 16222 Open Hopper, 4-Bay Steel 2008-12-01 115985
Trainworx 2418-23 Alaska Railroad ARR 16225 Open Hopper, 4-Bay Steel 2008-12-01 115986
Trainworx 2418-24 Alaska Railroad ARR 16227 Open Hopper, 4-Bay Steel 2008-12-01 115987
Trainworx 2418-25 Alaska Railroad ARR 16228 Open Hopper, 4-Bay Steel 2008-12-01 115988
Trainworx 2418-26 Alaska Railroad ARR 16231 Open Hopper, 4-Bay Steel 2008-12-01 115989
Trainworx 2418-27 Alaska Railroad ARR 16233 Open Hopper, 4-Bay Steel 2008-12-01 115990
Trainworx 2418-28 Alaska Railroad ARR 16234 Open Hopper, 4-Bay Steel 2008-12-01 115991
Trainworx 2418-29 Alaska Railroad ARR 16236 Open Hopper, 4-Bay Steel 2008-12-01 115992
Trainworx 2418-30 Alaska Railroad ARR 16238 Open Hopper, 4-Bay Steel 2008-12-01 115993
Trainworx 2418-31 Alaska Railroad ARR 16240 Open Hopper, 4-Bay Steel 2008-12-01 115994
Trainworx 2418-32 Alaska Railroad ARR 16243 Open Hopper, 4-Bay Steel 2008-12-01 115995
Trainworx 2418-33 Alaska Railroad ARR 16245 Open Hopper, 4-Bay Steel 2008-12-01 115996
Trainworx 2418-34 Alaska Railroad ARR 16247 Open Hopper, 4-Bay Steel E:$17.00 2008-12-01 115997
Trainworx 2418-35 Alaska Railroad ARR 16248 Open Hopper, 4-Bay Steel 2008-12-01 115998
Trainworx 2418-36 Alaska Railroad ARR 16252 Open Hopper, 4-Bay Steel 2008-12-01 115999